x

Isle Of Shoals, Nh (iosn3) Weather Station

2:00 - Sun 4th Dec 2016 All times are EST. -5 hours from GMT.

  • Wind
    18mph, 20mph gusts
  • Air Temp 39°f
  • Sea Pressure 1020.2mb
  • Isle Of Shoals, Nh
  • Isle Of Shoals, Nh

More Historic Weather Station data

Upgrade to MSW Pro to gain access to the past 30 days of data for over 8000 Wavebouys and Weather Stations around the globe.

Join Pro

Comparision Forecast

View Surf forecast
   
dim. 12/04 2:00 18 20 mph 1020.2mb 39f
1:00 13 15 mph 1020.1mb 39f
12:00 16 20 mph 1020.3mb 37f
11:00 14 16 mph 1020.7mb 36f
10:00 14 17 mph 1021.4mb 35f
9:00 15 16 mph 1020.8mb 34f
8:00 13 15 mph 1020.7mb 34f
7:00 17 21 mph 1019.9mb 34f
6:00 22 25 mph 1019.4mb 34f
5:00 20 22 mph 1019.2mb 35f
4:00 18 21 mph 1018.8mb 35f
3:00 17 18 mph 1018.4mb 35f
2:00 20 21 mph 1018mb 36f
1:00 20 22 mph 1017.1mb 36f
12:00 20 23 mph 1016.6mb 37f
sam. 12/03 11:00 21 22 mph 1016.3mb 37f
10:00 18 22 mph 1016mb 37f
9:00 21 24 mph 1015.8mb 37f
8:00 22 24 mph 1015.7mb 38f
7:00 18 23 mph 1015.1mb 39f
6:00 24 28 mph 1013.9mb 40f
5:00 29 34 mph 1012.6mb 41f
4:00 22 25 mph 1011.9mb 42f
3:00 29 32 mph 1010.6mb 43f
2:00 30 33 mph 1009.7mb 43f
1:00 31 33 mph 1009.4mb 43f
12:00 30 32 mph 1009.5mb 43f
11:00 28 30 mph 1009.4mb 42f
10:00 23 26 mph 1009.5mb 42f
9:00 28 33 mph 1008.7mb 40f
8:00 26 31 mph 1008.2mb 39f
7:00 29 32 mph 1007.2mb 39f
6:00 29 33 mph 1006.4mb 39f
5:00 17 24 mph 1006.7mb 39f
4:00 22 25 mph 1006.1mb 38f
3:00 22 24 mph 1006.1mb 39f
2:00 26 31 mph 1005.8mb 39f
1:00 22 25 mph 1005.6mb 40f
12:00 23 25 mph 1005.1mb 41f
ven. 12/02 11:00 25 29 mph 1005.2mb 41f
10:00 21 23 mph 1004.8mb 44f
9:00 23 25 mph 1004.9mb 44f
8:00 24 26 mph 1005.2mb 45f
7:00 20 21 mph 1005.6mb 46f
6:00 24 26 mph 1005.3mb 47f
5:00 20 21 mph 1005.5mb 48f
4:00 22 23 mph 1005.1mb 49f
3:00 18 20 mph 1005mb 49f
2:00 20 22 mph 1004.8mb 49f
1:00 24 25 mph 1004.9mb 48f
12:00 22 24 mph 1005.3mb 48f
11:00 21 24 mph 1005.9mb 47f
10:00 21 24 mph 1006.4mb 44f
9:00 26 29 mph 1006.3mb 43f
8:00 21 23 mph 1006.5mb 42f
7:00 21 24 mph 1006.3mb 41f
6:00 22 23 mph 1006.1mb 41f
5:00 23 26 mph 1005.3mb 42f
4:00 20 23 mph 1004.9mb 42f
3:00 17 20 mph 1004.8mb 43f
2:00 22 23 mph 1004.4mb 43f
1:00 20 22 mph 1004mb 43f
12:00 21 22 mph 1003.4mb 44f
jeu. 12/01 11:00 23 26 mph 1002.8mb 45f
10:00 26 29 mph 1002.2mb 45f
9:00 25 30 mph 1001.5mb 46f
8:00 23 26 mph 1001.1mb 47f
7:00 24 25 mph 1000.6mb 48f
6:00 22 25 mph 1000.1mb 48f
5:00 22 25 mph 999.8mb 49f
4:00 31 34 mph 998.5mb 51f
3:00 25 30 mph 997.8mb 53f
2:00 21 23 mph 996.8mb 54f
12:00 20 23 mph 997mb 50f
11:00 14 15 mph 997mb 47f
10:00 21 23 mph 996.8mb 47f
9:00 21 24 mph 995.7mb 45f
8:00 20 23 mph 994.6mb 48f
7:00 15 16 mph 994.5mb 49f
6:00 20 21 mph 994.4mb 53f
5:00 23 25 mph 994.8mb 50f
4:00 33 37 mph 997.1mb 49f
3:00 29 32 mph 1001mb 49f
2:00 22 25 mph 1004.8mb 49f
1:00 21 23 mph 1006mb 48f
12:00 26 29 mph 1006.9mb 48f
mer. 11/30 11:00 25 28 mph 1009.2mb 48f
10:00 28 29 mph 1010.8mb 48f
9:00 26 29 mph 1012mb 47f